sensor_id;sensor_type;location;lat;lon;timestamp;temperature;humidity
9800;DHT22;4939;52.00085300;4.17406100;2023-02-28T00:01:27;2.00;99.90
9800;DHT22;4939;52.00085300;4.17406100;2023-02-28T00:03:52;2.10;99.90
9800;DHT22;4939;52.00085300;4.17406100;2023-02-28T00:06:19;2.10;99.90
9800;DHT22;4939;52.00085300;4.17406100;2023-02-28T00:08:46;2.10;99.90
9800;DHT22;4939;52.00085300;4.17406100;2023-02-28T00:11:14;2.10;99.90
9800;DHT22;4939;52.00085300;4.17406100;2023-02-28T00:13:42;2.10;99.90
9800;DHT22;4939;52.00085300;4.17406100;2023-02-28T00:16:13;2.20;99.90
9800;DHT22;4939;52.00085300;4.17406100;2023-02-28T00:18:40;2.20;99.90
9800;DHT22;4939;52.00085300;4.17406100;2023-02-28T00:21:07;2.30;99.90
9800;DHT22;4939;52.00085300;4.17406100;2023-02-28T00:23:33;2.30;99.90
9800;DHT22;4939;52.00085300;4.17406100;2023-02-28T00:25:59;2.40;99.90
9800;DHT22;4939;52.00085300;4.17406100;2023-02-28T00:28:29;2.40;99.90
9800;DHT22;4939;52.00085300;4.17406100;2023-02-28T00:30:56;2.50;99.90
9800;DHT22;4939;52.00085300;4.17406100;2023-02-28T00:33:23;2.50;99.90
9800;DHT22;4939;52.00085300;4.17406100;2023-02-28T00:35:49;2.60;99.90
9800;DHT22;4939;52.00085300;4.17406100;2023-02-28T00:38:15;2.60;99.90
9800;DHT22;4939;52.00085300;4.17406100;2023-02-28T00:40:41;2.60;99.90
9800;DHT22;4939;52.00085300;4.17406100;2023-02-28T00:43:07;2.70;99.90
9800;DHT22;4939;52.00085300;4.17406100;2023-02-28T00:45:33;2.70;99.90
9800;DHT22;4939;52.00085300;4.17406100;2023-02-28T00:47:58;2.80;99.90
9800;DHT22;4939;52.00085300;4.17406100;2023-02-28T00:50:25;2.80;99.90
9800;DHT22;4939;52.00085300;4.17406100;2023-02-28T00:52:51;2.90;99.90
9800;DHT22;4939;52.00085300;4.17406100;2023-02-28T00:55:16;2.90;99.90
9800;DHT22;4939;52.00085300;4.17406100;2023-02-28T00:57:42;3.00;99.90
9800;DHT22;4939;52.00085300;4.17406100;2023-02-28T01:00:08;3.00;99.90
9800;DHT22;4939;52.00085300;4.17406100;2023-02-28T01:02:34;3.10;99.90
9800;DHT22;4939;52.00085300;4.17406100;2023-02-28T01:05:00;3.10;99.90
9800;DHT22;4939;52.00085300;4.17406100;2023-02-28T01:07:26;3.20;99.90
9800;DHT22;4939;52.00085300;4.17406100;2023-02-28T01:09:51;3.20;99.90
9800;DHT22;4939;52.00085300;4.17406100;2023-02-28T01:12:17;3.30;99.90
9800;DHT22;4939;52.00085300;4.17406100;2023-02-28T01:14:43;3.30;99.90
9800;DHT22;4939;52.00085300;4.17406100;2023-02-28T01:17:09;3.40;99.90
9800;DHT22;4939;52.00085300;4.17406100;2023-02-28T01:19:34;3.30;99.90
9800;DHT22;4939;52.00085300;4.17406100;2023-02-28T01:22:03;3.40;99.90
9800;DHT22;4939;52.00085300;4.17406100;2023-02-28T01:24:28;3.40;99.90
9800;DHT22;4939;52.00085300;4.17406100;2023-02-28T01:26:54;3.40;99.90
9800;DHT22;4939;52.00085300;4.17406100;2023-02-28T01:29:20;3.50;99.90
9800;DHT22;4939;52.00085300;4.17406100;2023-02-28T01:31:45;3.50;99.90
9800;DHT22;4939;52.00085300;4.17406100;2023-02-28T01:34:11;3.50;99.90
9800;DHT22;4939;52.00085300;4.17406100;2023-02-28T01:36:37;3.50;99.90
9800;DHT22;4939;52.00085300;4.17406100;2023-02-28T01:39:04;3.50;99.90
9800;DHT22;4939;52.00085300;4.17406100;2023-02-28T01:41:31;3.50;99.90
9800;DHT22;4939;52.00085300;4.17406100;2023-02-28T01:46:25;3.60;99.90
9800;DHT22;4939;52.00085300;4.17406100;2023-02-28T01:49:20;3.60;99.90
9800;DHT22;4939;52.00085300;4.17406100;2023-02-28T01:51:48;3.70;99.90
9800;DHT22;4939;52.00085300;4.17406100;2023-02-28T01:54:24;3.70;99.90
9800;DHT22;4939;52.00085300;4.17406100;2023-02-28T01:57:37;3.80;99.90
9800;DHT22;4939;52.00085300;4.17406100;2023-02-28T01:59:59;3.80;99.90
9800;DHT22;4939;52.00085300;4.17406100;2023-02-28T02:02:27;3.80;99.90
9800;DHT22;4939;52.00085300;4.17406100;2023-02-28T02:04:58;3.80;99.90
9800;DHT22;4939;52.00085300;4.17406100;2023-02-28T02:07:30;3.80;99.90
9800;DHT22;4939;52.00085300;4.17406100;2023-02-28T02:10:04;3.80;99.90
9800;DHT22;4939;52.00085300;4.17406100;2023-02-28T02:12:42;3.90;99.90
9800;DHT22;4939;52.00085300;4.17406100;2023-02-28T02:15:22;3.90;99.90
9800;DHT22;4939;52.00085300;4.17406100;2023-02-28T02:17:52;3.90;99.90
9800;DHT22;4939;52.00085300;4.17406100;2023-02-28T02:25:48;3.90;99.90
9800;DHT22;4939;52.00085300;4.17406100;2023-02-28T02:28:40;3.90;99.90
9800;DHT22;4939;52.00085300;4.17406100;2023-02-28T02:36:39;3.90;99.90
9800;DHT22;4939;52.00085300;4.17406100;2023-02-28T02:39:33;3.90;99.90
9800;DHT22;4939;52.00085300;4.17406100;2023-02-28T02:42:08;4.00;99.90
9800;DHT22;4939;52.00085300;4.17406100;2023-02-28T02:44:50;4.00;99.90
9800;DHT22;4939;52.00085300;4.17406100;2023-02-28T02:47:22;4.00;99.90
9800;DHT22;4939;52.00085300;4.17406100;2023-02-28T02:49:52;4.00;99.90
9800;DHT22;4939;52.00085300;4.17406100;2023-02-28T02:52:23;4.00;99.90
9800;DHT22;4939;52.00085300;4.17406100;2023-02-28T02:54:54;4.00;99.90
9800;DHT22;4939;52.00085300;4.17406100;2023-02-28T02:57:38;4.00;99.90
9800;DHT22;4939;52.00085300;4.17406100;2023-02-28T03:00:07;4.00;99.90
9800;DHT22;4939;52.00085300;4.17406100;2023-02-28T03:02:35;4.00;99.90
9800;DHT22;4939;52.00085300;4.17406100;2023-02-28T03:05:08;4.10;99.90
9800;DHT22;4939;52.00085300;4.17406100;2023-02-28T03:07:37;4.10;99.90
9800;DHT22;4939;52.00085300;4.17406100;2023-02-28T03:10:25;4.10;99.90
9800;DHT22;4939;52.00085300;4.17406100;2023-02-28T03:12:57;4.10;99.90
9800;DHT22;4939;52.00085300;4.17406100;2023-02-28T03:15:28;4.10;99.90
9800;DHT22;4939;52.00085300;4.17406100;2023-02-28T03:18:07;4.10;99.90
9800;DHT22;4939;52.00085300;4.17406100;2023-02-28T03:20:45;4.10;99.90
9800;DHT22;4939;52.00085300;4.17406100;2023-02-28T03:23:41;4.10;99.90
9800;DHT22;4939;52.00085300;4.17406100;2023-02-28T03:26:23;4.10;99.90
9800;DHT22;4939;52.00085300;4.17406100;2023-02-28T03:29:02;4.10;99.90
9800;DHT22;4939;52.00085300;4.17406100;2023-02-28T03:31:37;4.10;99.90
9800;DHT22;4939;52.00085300;4.17406100;2023-02-28T03:34:30;4.20;99.90
9800;DHT22;4939;52.00085300;4.17406100;2023-02-28T03:37:00;4.20;99.90
9800;DHT22;4939;52.00085300;4.17406100;2023-02-28T03:39:37;4.20;99.90
9800;DHT22;4939;52.00085300;4.17406100;2023-02-28T03:42:16;4.20;99.90
9800;DHT22;4939;52.00085300;4.17406100;2023-02-28T03:44:50;4.20;99.90
9800;DHT22;4939;52.00085300;4.17406100;2023-02-28T03:47:23;4.30;99.90
9800;DHT22;4939;52.00085300;4.17406100;2023-02-28T03:50:05;4.30;99.90
9800;DHT22;4939;52.00085300;4.17406100;2023-02-28T03:52:35;4.30;99.90
9800;DHT22;4939;52.00085300;4.17406100;2023-02-28T03:55:07;4.30;99.90
9800;DHT22;4939;52.00085300;4.17406100;2023-02-28T04:00:42;4.30;99.90
9800;DHT22;4939;52.00085300;4.17406100;2023-02-28T04:03:08;4.30;99.90
9800;DHT22;4939;52.00085300;4.17406100;2023-02-28T04:05:48;4.30;99.90
9800;DHT22;4939;52.00085300;4.17406100;2023-02-28T04:08:16;4.40;99.90
9800;DHT22;4939;52.00085300;4.17406100;2023-02-28T04:10:43;4.40;99.90
9800;DHT22;4939;52.00085300;4.17406100;2023-02-28T04:13:10;4.40;99.90
9800;DHT22;4939;52.00085300;4.17406100;2023-02-28T04:15:36;4.40;99.90
9800;DHT22;4939;52.00085300;4.17406100;2023-02-28T04:18:02;4.40;99.90
9800;DHT22;4939;52.00085300;4.17406100;2023-02-28T04:20:28;4.40;99.90
9800;DHT22;4939;52.00085300;4.17406100;2023-02-28T04:22:53;4.40;99.90
9800;DHT22;4939;52.00085300;4.17406100;2023-02-28T04:25:19;4.40;99.90
9800;DHT22;4939;52.00085300;4.17406100;2023-02-28T04:27:45;4.50;99.90
9800;DHT22;4939;52.00085300;4.17406100;2023-02-28T04:30:11;4.50;99.90
9800;DHT22;4939;52.00085300;4.17406100;2023-02-28T04:32:37;4.50;99.90
9800;DHT22;4939;52.00085300;4.17406100;2023-02-28T04:35:02;4.50;99.90
9800;DHT22;4939;52.00085300;4.17406100;2023-02-28T04:37:29;4.50;99.90
9800;DHT22;4939;52.00085300;4.17406100;2023-02-28T04:39:55;4.50;99.90
9800;DHT22;4939;52.00085300;4.17406100;2023-02-28T04:42:21;4.50;99.90
9800;DHT22;4939;52.00085300;4.17406100;2023-02-28T04:44:46;4.60;99.90
9800;DHT22;4939;52.00085300;4.17406100;2023-02-28T04:47:12;4.50;99.90
9800;DHT22;4939;52.00085300;4.17406100;2023-02-28T04:49:38;4.50;99.90
9800;DHT22;4939;52.00085300;4.17406100;2023-02-28T04:52:04;4.50;99.90
9800;DHT22;4939;52.00085300;4.17406100;2023-02-28T04:54:30;4.50;99.90
9800;DHT22;4939;52.00085300;4.17406100;2023-02-28T04:56:56;4.50;99.90
9800;DHT22;4939;52.00085300;4.17406100;2023-02-28T04:59:21;4.50;99.90
9800;DHT22;4939;52.00085300;4.17406100;2023-02-28T05:01:48;4.50;99.90
9800;DHT22;4939;52.00085300;4.17406100;2023-02-28T05:04:14;4.50;99.90
9800;DHT22;4939;52.00085300;4.17406100;2023-02-28T05:06:40;4.50;99.90
9800;DHT22;4939;52.00085300;4.17406100;2023-02-28T05:09:06;4.50;99.90
9800;DHT22;4939;52.00085300;4.17406100;2023-02-28T05:11:33;4.50;99.90
9800;DHT22;4939;52.00085300;4.17406100;2023-02-28T05:14:06;4.40;99.90
9800;DHT22;4939;52.00085300;4.17406100;2023-02-28T05:16:32;4.40;99.90
9800;DHT22;4939;52.00085300;4.17406100;2023-02-28T05:18:58;4.40;99.90
9800;DHT22;4939;52.00085300;4.17406100;2023-02-28T05:23:55;4.40;99.90
9800;DHT22;4939;52.00085300;4.17406100;2023-02-28T05:26:22;4.20;99.90
9800;DHT22;4939;52.00085300;4.17406100;2023-02-28T05:28:48;4.20;99.90
9800;DHT22;4939;52.00085300;4.17406100;2023-02-28T05:31:14;4.20;99.90
9800;DHT22;4939;52.00085300;4.17406100;2023-02-28T05:33:39;4.10;99.90
9800;DHT22;4939;52.00085300;4.17406100;2023-02-28T05:36:06;4.10;99.90
9800;DHT22;4939;52.00085300;4.17406100;2023-02-28T05:38:31;4.10;99.90
9800;DHT22;4939;52.00085300;4.17406100;2023-02-28T05:40:57;4.00;99.90
9800;DHT22;4939;52.00085300;4.17406100;2023-02-28T05:43:23;4.00;99.90
9800;DHT22;4939;52.00085300;4.17406100;2023-02-28T05:45:49;4.00;99.90
9800;DHT22;4939;52.00085300;4.17406100;2023-02-28T05:48:14;4.10;99.90
9800;DHT22;4939;52.00085300;4.17406100;2023-02-28T05:50:40;4.10;99.90
9800;DHT22;4939;52.00085300;4.17406100;2023-02-28T05:53:08;4.90;99.90
9800;DHT22;4939;52.00085300;4.17406100;2023-02-28T05:55:34;4.10;99.90
9800;DHT22;4939;52.00085300;4.17406100;2023-02-28T05:58:01;4.10;99.90
9800;DHT22;4939;52.00085300;4.17406100;2023-02-28T06:00:27;4.10;99.90
9800;DHT22;4939;52.00085300;4.17406100;2023-02-28T06:02:53;4.10;99.90
9800;DHT22;4939;52.00085300;4.17406100;2023-02-28T06:05:23;4.00;99.90
9800;DHT22;4939;52.00085300;4.17406100;2023-02-28T06:07:49;4.00;99.90
9800;DHT22;4939;52.00085300;4.17406100;2023-02-28T06:10:15;3.90;99.90
9800;DHT22;4939;52.00085300;4.17406100;2023-02-28T06:12:41;3.90;99.90
9800;DHT22;4939;52.00085300;4.17406100;2023-02-28T06:15:17;3.90;99.90
9800;DHT22;4939;52.00085300;4.17406100;2023-02-28T06:17:44;3.90;99.90
9800;DHT22;4939;52.00085300;4.17406100;2023-02-28T06:20:11;3.90;99.90
9800;DHT22;4939;52.00085300;4.17406100;2023-02-28T06:22:40;3.90;99.90
9800;DHT22;4939;52.00085300;4.17406100;2023-02-28T06:25:06;3.90;99.90
9800;DHT22;4939;52.00085300;4.17406100;2023-02-28T06:27:33;3.90;99.90
9800;DHT22;4939;52.00085300;4.17406100;2023-02-28T06:29:59;3.90;99.90
9800;DHT22;4939;52.00085300;4.17406100;2023-02-28T06:32:24;3.90;99.90
9800;DHT22;4939;52.00085300;4.17406100;2023-02-28T06:34:50;3.90;99.90
9800;DHT22;4939;52.00085300;4.17406100;2023-02-28T06:37:17;3.90;99.90
9800;DHT22;4939;52.00085300;4.17406100;2023-02-28T06:39:43;3.90;99.90
9800;DHT22;4939;52.00085300;4.17406100;2023-02-28T06:42:09;3.80;99.90
9800;DHT22;4939;52.00085300;4.17406100;2023-02-28T06:44:35;3.80;99.90
9800;DHT22;4939;52.00085300;4.17406100;2023-02-28T06:47:02;3.80;99.90
9800;DHT22;4939;52.00085300;4.17406100;2023-02-28T06:49:30;3.80;99.90
9800;DHT22;4939;52.00085300;4.17406100;2023-02-28T06:51:55;3.70;99.90
9800;DHT22;4939;52.00085300;4.17406100;2023-02-28T06:54:21;3.70;99.90
9800;DHT22;4939;52.00085300;4.17406100;2023-02-28T06:56:47;3.70;99.90
9800;DHT22;4939;52.00085300;4.17406100;2023-02-28T06:59:13;3.70;99.90
9800;DHT22;4939;52.00085300;4.17406100;2023-02-28T07:01:39;3.80;99.90
9800;DHT22;4939;52.00085300;4.17406100;2023-02-28T07:04:06;3.70;99.90
9800;DHT22;4939;52.00085300;4.17406100;2023-02-28T07:06:32;3.70;99.90
9800;DHT22;4939;52.00085300;4.17406100;2023-02-28T07:08:58;3.70;99.90
9800;DHT22;4939;52.00085300;4.17406100;2023-02-28T07:11:27;3.70;99.90
9800;DHT22;4939;52.00085300;4.17406100;2023-02-28T07:13:54;3.70;99.90
9800;DHT22;4939;52.00085300;4.17406100;2023-02-28T07:16:21;3.70;99.90
9800;DHT22;4939;52.00085300;4.17406100;2023-02-28T07:18:47;3.80;99.90
9800;DHT22;4939;52.00085300;4.17406100;2023-02-28T07:21:14;3.70;99.90
9800;DHT22;4939;52.00085300;4.17406100;2023-02-28T07:23:40;3.70;99.90
9800;DHT22;4939;52.00085300;4.17406100;2023-02-28T07:26:12;3.70;99.90
9800;DHT22;4939;52.00085300;4.17406100;2023-02-28T07:28:41;3.70;99.90
9800;DHT22;4939;52.00085300;4.17406100;2023-02-28T07:31:09;3.70;99.90
9800;DHT22;4939;52.00085300;4.17406100;2023-02-28T07:33:35;3.70;99.90
9800;DHT22;4939;52.00085300;4.17406100;2023-02-28T07:36:06;3.70;99.90
9800;DHT22;4939;52.00085300;4.17406100;2023-02-28T07:38:36;3.70;99.90
9800;DHT22;4939;52.00085300;4.17406100;2023-02-28T07:41:03;3.70;99.90
9800;DHT22;4939;52.00085300;4.17406100;2023-02-28T07:43:34;3.60;99.90
9800;DHT22;4939;52.00085300;4.17406100;2023-02-28T07:46:06;3.60;99.90
9800;DHT22;4939;52.00085300;4.17406100;2023-02-28T07:48:32;3.60;99.90
9800;DHT22;4939;52.00085300;4.17406100;2023-02-28T07:50:59;3.50;99.90
9800;DHT22;4939;52.00085300;4.17406100;2023-02-28T07:53:25;3.50;99.90
9800;DHT22;4939;52.00085300;4.17406100;2023-02-28T07:56:02;3.40;99.90
9800;DHT22;4939;52.00085300;4.17406100;2023-02-28T07:58:29;3.30;99.90
9800;DHT22;4939;52.00085300;4.17406100;2023-02-28T08:00:55;3.20;99.90
9800;DHT22;4939;52.00085300;4.17406100;2023-02-28T08:03:23;3.20;99.90
9800;DHT22;4939;52.00085300;4.17406100;2023-02-28T08:05:48;3.10;99.90
9800;DHT22;4939;52.00085300;4.17406100;2023-02-28T08:08:15;3.10;99.90
9800;DHT22;4939;52.00085300;4.17406100;2023-02-28T08:10:42;3.00;99.90
9800;DHT22;4939;52.00085300;4.17406100;2023-02-28T08:13:09;2.90;99.90
9800;DHT22;4939;52.00085300;4.17406100;2023-02-28T08:15:35;2.80;99.90
9800;DHT22;4939;52.00085300;4.17406100;2023-02-28T08:18:02;2.70;99.90
9800;DHT22;4939;52.00085300;4.17406100;2023-02-28T08:20:27;2.70;99.90
9800;DHT22;4939;52.00085300;4.17406100;2023-02-28T08:22:53;2.60;99.90
9800;DHT22;4939;52.00085300;4.17406100;2023-02-28T08:25:19;2.70;99.90
9800;DHT22;4939;52.00085300;4.17406100;2023-02-28T08:27:45;2.70;99.90
9800;DHT22;4939;52.00085300;4.17406100;2023-02-28T08:30:12;2.60;99.90
9800;DHT22;4939;52.00085300;4.17406100;2023-02-28T08:32:38;2.60;99.90
9800;DHT22;4939;52.00085300;4.17406100;2023-02-28T08:35:05;2.50;99.90
9800;DHT22;4939;52.00085300;4.17406100;2023-02-28T08:37:31;2.50;99.90
9800;DHT22;4939;52.00085300;4.17406100;2023-02-28T08:39:58;2.50;99.90
9800;DHT22;4939;52.00085300;4.17406100;2023-02-28T08:42:24;2.50;99.90
9800;DHT22;4939;52.00085300;4.17406100;2023-02-28T08:44:50;2.50;99.90
9800;DHT22;4939;52.00085300;4.17406100;2023-02-28T08:47:16;2.40;99.90
9800;DHT22;4939;52.00085300;4.17406100;2023-02-28T08:49:43;2.40;99.90
9800;DHT22;4939;52.00085300;4.17406100;2023-02-28T08:52:08;2.40;99.90
9800;DHT22;4939;52.00085300;4.17406100;2023-02-28T08:54:35;2.30;99.90
9800;DHT22;4939;52.00085300;4.17406100;2023-02-28T08:57:02;2.30;99.90
9800;DHT22;4939;52.00085300;4.17406100;2023-02-28T08:59:27;2.30;99.90
9800;DHT22;4939;52.00085300;4.17406100;2023-02-28T09:01:53;2.20;99.90
9800;DHT22;4939;52.00085300;4.17406100;2023-02-28T09:04:19;2.20;99.90
9800;DHT22;4939;52.00085300;4.17406100;2023-02-28T09:06:44;2.20;99.90
9800;DHT22;4939;52.00085300;4.17406100;2023-02-28T09:09:10;2.10;99.90
9800;DHT22;4939;52.00085300;4.17406100;2023-02-28T09:11:36;2.10;99.90
9800;DHT22;4939;52.00085300;4.17406100;2023-02-28T09:14:02;2.00;99.90
9800;DHT22;4939;52.00085300;4.17406100;2023-02-28T09:16:30;2.00;99.90
9800;DHT22;4939;52.00085300;4.17406100;2023-02-28T09:18:56;1.90;99.90
9800;DHT22;4939;52.00085300;4.17406100;2023-02-28T09:21:22;1.90;99.90
9800;DHT22;4939;52.00085300;4.17406100;2023-02-28T09:23:50;1.90;99.90
9800;DHT22;4939;52.00085300;4.17406100;2023-02-28T09:26:16;2.00;99.90
9800;DHT22;4939;52.00085300;4.17406100;2023-02-28T09:28:42;2.00;99.90
9800;DHT22;4939;52.00085300;4.17406100;2023-02-28T09:31:23;2.10;99.90
9800;DHT22;4939;52.00085300;4.17406100;2023-02-28T09:33:49;2.00;99.90
9800;DHT22;4939;52.00085300;4.17406100;2023-02-28T09:36:16;2.10;99.90
9800;DHT22;4939;52.00085300;4.17406100;2023-02-28T09:38:41;2.10;99.90
9800;DHT22;4939;52.00085300;4.17406100;2023-02-28T09:41:23;2.20;99.90
9800;DHT22;4939;52.00085300;4.17406100;2023-02-28T09:43:59;2.20;99.90
9800;DHT22;4939;52.00085300;4.17406100;2023-02-28T09:46:49;2.30;99.90
9800;DHT22;4939;52.00085300;4.17406100;2023-02-28T09:49:22;2.40;99.90
9800;DHT22;4939;52.00085300;4.17406100;2023-02-28T09:52:00;2.40;99.90
9800;DHT22;4939;52.00085300;4.17406100;2023-02-28T09:54:30;2.50;99.90
9800;DHT22;4939;52.00085300;4.17406100;2023-02-28T09:57:09;2.60;99.90
9800;DHT22;4939;52.00085300;4.17406100;2023-02-28T10:05:47;3.00;99.90
9800;DHT22;4939;52.00085300;4.17406100;2023-02-28T10:08:19;3.10;99.90
9800;DHT22;4939;52.00085300;4.17406100;2023-02-28T10:10:57;3.10;99.90
9800;DHT22;4939;52.00085300;4.17406100;2023-02-28T10:19:09;3.20;99.90
9800;DHT22;4939;52.00085300;4.17406100;2023-02-28T10:21:42;3.20;99.90
9800;DHT22;4939;52.00085300;4.17406100;2023-02-28T10:24:20;3.30;99.90
9800;DHT22;4939;52.00085300;4.17406100;2023-02-28T10:26:52;3.30;99.90
9800;DHT22;4939;52.00085300;4.17406100;2023-02-28T10:29:21;3.40;99.90
9800;DHT22;4939;52.00085300;4.17406100;2023-02-28T10:31:46;3.40;99.90
9800;DHT22;4939;52.00085300;4.17406100;2023-02-28T10:34:12;3.50;99.90
9800;DHT22;4939;52.00085300;4.17406100;2023-02-28T10:36:38;3.60;99.90
9800;DHT22;4939;52.00085300;4.17406100;2023-02-28T10:42:05;3.80;99.90
9800;DHT22;4939;52.00085300;4.17406100;2023-02-28T10:44:43;3.90;99.90
9800;DHT22;4939;52.00085300;4.17406100;2023-02-28T10:47:15;4.00;99.90
9800;DHT22;4939;52.00085300;4.17406100;2023-02-28T10:49:47;4.00;99.90
9800;DHT22;4939;52.00085300;4.17406100;2023-02-28T10:52:13;4.10;99.90
9800;DHT22;4939;52.00085300;4.17406100;2023-02-28T10:54:39;4.20;99.90
9800;DHT22;4939;52.00085300;4.17406100;2023-02-28T10:57:23;4.20;99.90
9800;DHT22;4939;52.00085300;4.17406100;2023-02-28T11:00:13;4.20;99.90
9800;DHT22;4939;52.00085300;4.17406100;2023-02-28T11:02:40;4.20;99.90
9800;DHT22;4939;52.00085300;4.17406100;2023-02-28T11:05:31;4.30;99.90
9800;DHT22;4939;52.00085300;4.17406100;2023-02-28T11:08:18;4.20;99.90
9800;DHT22;4939;52.00085300;4.17406100;2023-02-28T11:10:53;4.20;99.90
9800;DHT22;4939;52.00085300;4.17406100;2023-02-28T11:13:31;4.20;99.90
9800;DHT22;4939;52.00085300;4.17406100;2023-02-28T11:15:59;4.30;99.90
9800;DHT22;4939;52.00085300;4.17406100;2023-02-28T11:23:57;4.30;99.90
9800;DHT22;4939;52.00085300;4.17406100;2023-02-28T11:26:40;4.40;99.90
9800;DHT22;4939;52.00085300;4.17406100;2023-02-28T11:32:02;4.60;99.90
9800;DHT22;4939;52.00085300;4.17406100;2023-02-28T11:34:28;6.30;99.90
9800;DHT22;4939;52.00085300;4.17406100;2023-02-28T11:36:55;4.80;99.90
9800;DHT22;4939;52.00085300;4.17406100;2023-02-28T11:39:23;4.80;99.90
9800;DHT22;4939;52.00085300;4.17406100;2023-02-28T11:42:18;4.90;99.90
9800;DHT22;4939;52.00085300;4.17406100;2023-02-28T11:44:50;4.90;99.90
9800;DHT22;4939;52.00085300;4.17406100;2023-02-28T11:47:38;5.00;99.90
9800;DHT22;4939;52.00085300;4.17406100;2023-02-28T11:52:57;5.10;99.90
9800;DHT22;4939;52.00085300;4.17406100;2023-02-28T11:55:32;5.10;99.90
9800;DHT22;4939;52.00085300;4.17406100;2023-02-28T12:09:39;5.10;99.90
9800;DHT22;4939;52.00085300;4.17406100;2023-02-28T12:17:41;5.50;99.90
9800;DHT22;4939;52.00085300;4.17406100;2023-02-28T12:26:14;5.60;99.90
9800;DHT22;4939;52.00085300;4.17406100;2023-02-28T12:28:49;5.60;99.90
9800;DHT22;4939;52.00085300;4.17406100;2023-02-28T12:31:22;5.80;99.90
9800;DHT22;4939;52.00085300;4.17406100;2023-02-28T12:33:56;5.90;99.90
9800;DHT22;4939;52.00085300;4.17406100;2023-02-28T12:36:24;6.10;99.90
9800;DHT22;4939;52.00085300;4.17406100;2023-02-28T12:39:26;6.10;99.90
9800;DHT22;4939;52.00085300;4.17406100;2023-02-28T12:41:53;6.10;24.50
9800;DHT22;4939;52.00085300;4.17406100;2023-02-28T12:44:45;6.10;99.90
9800;DHT22;4939;52.00085300;4.17406100;2023-02-28T12:47:17;6.20;1.00
9800;DHT22;4939;52.00085300;4.17406100;2023-02-28T12:49:52;6.20;1.00
9800;DHT22;4939;52.00085300;4.17406100;2023-02-28T12:53:23;7.50;99.90
9800;DHT22;4939;52.00085300;4.17406100;2023-02-28T12:58:33;6.20;1.00
9800;DHT22;4939;52.00085300;4.17406100;2023-02-28T13:09:29;5.80;99.90
9800;DHT22;4939;52.00085300;4.17406100;2023-02-28T13:11:55;5.80;1.00
9800;DHT22;4939;52.00085300;4.17406100;2023-02-28T13:17:14;6.00;99.90
9800;DHT22;4939;52.00085300;4.17406100;2023-02-28T13:19:44;6.10;99.90
9800;DHT22;4939;52.00085300;4.17406100;2023-02-28T13:24:56;5.90;99.90
9800;DHT22;4939;52.00085300;4.17406100;2023-02-28T13:27:32;5.90;99.90
9800;DHT22;4939;52.00085300;4.17406100;2023-02-28T13:29:58;5.90;99.90
9800;DHT22;4939;52.00085300;4.17406100;2023-02-28T13:32:35;6.00;36.60
9800;DHT22;4939;52.00085300;4.17406100;2023-02-28T13:37:37;5.90;1.00
9800;DHT22;4939;52.00085300;4.17406100;2023-02-28T13:42:46;5.90;1.00
9800;DHT22;4939;52.00085300;4.17406100;2023-02-28T13:45:23;5.80;1.00
9800;DHT22;4939;52.00085300;4.17406100;2023-02-28T13:48:03;5.80;1.00
9800;DHT22;4939;52.00085300;4.17406100;2023-02-28T13:50:37;5.80;1.00
9800;DHT22;4939;52.00085300;4.17406100;2023-02-28T14:06:57;6.10;99.90
9800;DHT22;4939;52.00085300;4.17406100;2023-02-28T14:09:31;6.20;99.90
9800;DHT22;4939;52.00085300;4.17406100;2023-02-28T14:15:03;6.40;1.00
9800;DHT22;4939;52.00085300;4.17406100;2023-02-28T14:17:31;6.50;24.70
9800;DHT22;4939;52.00085300;4.17406100;2023-02-28T14:19:57;6.50;1.00
9800;DHT22;4939;52.00085300;4.17406100;2023-02-28T14:22:52;6.60;1.00
9800;DHT22;4939;52.00085300;4.17406100;2023-02-28T14:25:40;6.50;1.00
9800;DHT22;4939;52.00085300;4.17406100;2023-02-28T14:31:38;6.30;1.00
9800;DHT22;4939;52.00085300;4.17406100;2023-02-28T14:34:26;6.50;1.00
9800;DHT22;4939;52.00085300;4.17406100;2023-02-28T14:36:58;6.60;1.00
9800;DHT22;4939;52.00085300;4.17406100;2023-02-28T14:39:26;6.70;1.00
9800;DHT22;4939;52.00085300;4.17406100;2023-02-28T14:41:57;6.70;1.00
9800;DHT22;4939;52.00085300;4.17406100;2023-02-28T14:44:30;6.80;1.00
9800;DHT22;4939;52.00085300;4.17406100;2023-02-28T14:46:59;6.90;1.00
9800;DHT22;4939;52.00085300;4.17406100;2023-02-28T14:49:37;7.20;1.00
9800;DHT22;4939;52.00085300;4.17406100;2023-02-28T14:52:20;7.40;1.00
9800;DHT22;4939;52.00085300;4.17406100;2023-02-28T14:54:55;7.70;1.00
9800;DHT22;4939;52.00085300;4.17406100;2023-02-28T14:57:34;7.80;1.00
9800;DHT22;4939;52.00085300;4.17406100;2023-02-28T15:00:27;8.00;1.00
9800;DHT22;4939;52.00085300;4.17406100;2023-02-28T15:02:55;8.00;1.00
9800;DHT22;4939;52.00085300;4.17406100;2023-02-28T15:05:29;8.00;1.00
9800;DHT22;4939;52.00085300;4.17406100;2023-02-28T15:10:35;8.20;1.00
9800;DHT22;4939;52.00085300;4.17406100;2023-02-28T15:13:13;8.20;1.00
9800;DHT22;4939;52.00085300;4.17406100;2023-02-28T15:18:25;8.10;1.00
9800;DHT22;4939;52.00085300;4.17406100;2023-02-28T15:20:52;8.90;1.00
9800;DHT22;4939;52.00085300;4.17406100;2023-02-28T15:23:20;8.00;99.90
9800;DHT22;4939;52.00085300;4.17406100;2023-02-28T15:25:47;8.00;99.90
9800;DHT22;4939;52.00085300;4.17406100;2023-02-28T15:28:19;8.00;99.90
9800;DHT22;4939;52.00085300;4.17406100;2023-02-28T15:30:56;7.90;99.90
9800;DHT22;4939;52.00085300;4.17406100;2023-02-28T15:33:27;7.90;99.90
9800;DHT22;4939;52.00085300;4.17406100;2023-02-28T15:38:37;7.90;99.90
9800;DHT22;4939;52.00085300;4.17406100;2023-02-28T15:41:04;7.90;99.90
9800;DHT22;4939;52.00085300;4.17406100;2023-02-28T15:43:38;8.90;99.90
9800;DHT22;4939;52.00085300;4.17406100;2023-02-28T15:46:07;7.70;99.90
9800;DHT22;4939;52.00085300;4.17406100;2023-02-28T15:48:43;7.60;99.90
9800;DHT22;4939;52.00085300;4.17406100;2023-02-28T15:51:20;7.50;99.90
9800;DHT22;4939;52.00085300;4.17406100;2023-02-28T15:53:51;7.40;60.40
9800;DHT22;4939;52.00085300;4.17406100;2023-02-28T15:57:03;7.30;19.70
9800;DHT22;4939;52.00085300;4.17406100;2023-02-28T15:59:15;7.10;1.00
9800;DHT22;4939;52.00085300;4.17406100;2023-02-28T16:01:41;6.90;1.00
9800;DHT22;4939;52.00085300;4.17406100;2023-02-28T16:04:19;6.80;1.00
9800;DHT22;4939;52.00085300;4.17406100;2023-02-28T16:06:45;6.70;1.00
9800;DHT22;4939;52.00085300;4.17406100;2023-02-28T16:09:15;6.60;1.00
9800;DHT22;4939;52.00085300;4.17406100;2023-02-28T16:11:44;6.50;1.00
9800;DHT22;4939;52.00085300;4.17406100;2023-02-28T16:14:12;6.40;1.00
9800;DHT22;4939;52.00085300;4.17406100;2023-02-28T16:16:43;6.30;1.00